createdAt,value
2023-02-28T00:04:54.125Z,60.79
2023-02-28T00:09:46.186Z,62.20
2023-02-28T00:14:38.562Z,62.21
2023-02-28T00:19:30.425Z,61.44
2023-02-28T00:24:22.218Z,61.86
2023-02-28T00:29:13.985Z,61.26
2023-02-28T00:34:05.813Z,61.67
2023-02-28T00:38:57.746Z,62.26
2023-02-28T00:43:53.496Z,61.42
2023-02-28T00:48:45.397Z,61.66
2023-02-28T00:53:37.448Z,61.41
2023-02-28T00:58:29.887Z,61.56
2023-02-28T01:03:24.022Z,61.31
2023-02-28T01:08:16.577Z,62.00
2023-02-28T01:13:10.582Z,61.82
2023-02-28T01:18:03.061Z,61.76
2023-02-28T01:22:59.066Z,62.53
2023-02-28T01:27:51.084Z,62.41
2023-02-28T01:32:44.777Z,62.17
2023-02-28T01:37:37.256Z,62.00
2023-02-28T01:42:29.280Z,62.63
2023-02-28T01:47:24.681Z,63.13
2023-02-28T01:52:19.252Z,62.98
2023-02-28T01:57:17.975Z,62.50
2023-02-28T02:02:10.206Z,62.64
2023-02-28T02:07:02.552Z,63.06
2023-02-28T02:11:57.149Z,62.95
2023-02-28T02:16:52.267Z,60.84
2023-02-28T02:22:06.750Z,60.90
2023-02-28T02:27:28.307Z,61.80
2023-02-28T02:32:56.949Z,62.00
2023-02-28T02:38:12.769Z,61.93
2023-02-28T02:43:14.738Z,61.19
2023-02-28T02:48:10.866Z,61.41
2023-02-28T02:53:05.944Z,59.67
2023-02-28T02:58:06.565Z,59.42
2023-02-28T03:02:58.947Z,58.46
2023-02-28T03:07:50.883Z,59.04
2023-02-28T03:12:52.829Z,58.57
2023-02-28T03:17:59.482Z,58.48
2023-02-28T03:23:18.758Z,58.61
2023-02-28T03:28:24.520Z,57.68
2023-02-28T03:33:24.151Z,58.41
2023-02-28T03:38:23.912Z,58.90
2023-02-28T03:43:21.109Z,57.95
2023-02-28T03:48:23.314Z,57.30
2023-02-28T03:53:17.477Z,56.65
2023-02-28T03:58:15.945Z,56.95
2023-02-28T04:03:07.688Z,57.44
2023-02-28T04:08:08.465Z,58.49
2023-02-28T04:13:00.183Z,59.39
2023-02-28T04:17:51.872Z,61.11
2023-02-28T04:22:43.535Z,61.46
2023-02-28T04:27:36.008Z,62.33
2023-02-28T04:32:27.823Z,63.25
2023-02-28T04:37:19.635Z,63.28
2023-02-28T04:42:12.716Z,62.69
2023-02-28T04:47:05.251Z,62.81
2023-02-28T04:51:56.924Z,62.68
2023-02-28T04:56:51.749Z,62.47
2023-02-28T05:01:47.817Z,60.77
2023-02-28T05:06:39.517Z,61.16
2023-02-28T05:11:37.141Z,61.09
2023-02-28T05:16:29.062Z,61.83
2023-02-28T05:21:26.991Z,61.53
2023-02-28T05:26:19.213Z,61.61
2023-02-28T05:31:14.563Z,61.51
2023-02-28T05:36:07.249Z,60.21
2023-02-28T05:40:59.155Z,60.71
2023-02-28T05:45:51.919Z,61.30
2023-02-28T05:50:45.886Z,60.06
2023-02-28T05:55:38.680Z,59.54
2023-02-28T06:00:30.943Z,58.40
2023-02-28T06:05:25.856Z,57.52
2023-02-28T06:10:18.436Z,57.28
2023-02-28T06:15:15.223Z,57.43
2023-02-28T06:20:08.796Z,57.27
2023-02-28T06:25:02.506Z,56.86
2023-02-28T06:29:56.714Z,56.56
2023-02-28T06:34:50.006Z,57.15
2023-02-28T06:39:42.984Z,55.90
2023-02-28T06:44:39.142Z,55.88
2023-02-28T06:49:34.869Z,55.73
2023-02-28T06:54:27.530Z,55.50
2023-02-28T06:59:22.761Z,55.74
2023-02-28T07:04:15.580Z,55.50
2023-02-28T07:09:08.068Z,54.84
2023-02-28T07:14:00.443Z,54.81
2023-02-28T07:18:56.282Z,54.98
2023-02-28T07:23:48.917Z,54.16
2023-02-28T07:28:43.493Z,46.78
2023-02-28T07:33:35.644Z,42.35
2023-02-28T07:38:27.465Z,40.30
2023-02-28T07:43:19.373Z,39.33
2023-02-28T07:48:11.138Z,36.66
2023-02-28T07:53:03.580Z,35.16
2023-02-28T07:57:55.583Z,34.45
2023-02-28T08:02:47.384Z,33.14
2023-02-28T08:07:39.099Z,33.87
2023-02-28T08:12:30.731Z,32.76
2023-02-28T08:17:22.477Z,30.53
2023-02-28T08:22:14.730Z,30.20
2023-02-28T08:27:06.511Z,29.60
2023-02-28T08:32:01.354Z,28.81
2023-02-28T08:36:54.100Z,28.56
2023-02-28T08:41:47.966Z,28.79
2023-02-28T08:46:41.133Z,28.99
2023-02-28T08:51:33.363Z,28.79
2023-02-28T08:56:25.342Z,29.15
2023-02-28T09:01:28.450Z,30.04
2023-02-28T09:06:22.194Z,29.16
2023-02-28T09:11:14.439Z,27.76
2023-02-28T09:16:09.005Z,28.51
2023-02-28T09:21:03.561Z,29.01
2023-02-28T09:25:55.766Z,29.79
2023-02-28T09:30:50.069Z,29.52
2023-02-28T09:35:42.268Z,29.07
2023-02-28T09:40:39.048Z,29.22
2023-02-28T09:45:41.742Z,29.83
2023-02-28T09:50:42.852Z,31.93
2023-02-28T09:55:46.472Z,32.36
2023-02-28T10:00:42.014Z,31.82
2023-02-28T10:05:49.377Z,32.28
2023-02-28T10:10:44.359Z,32.50
2023-02-28T10:15:37.200Z,32.97
2023-02-28T10:20:32.327Z,33.08
2023-02-28T10:25:27.193Z,33.80
2023-02-28T10:30:18.944Z,34.32
2023-02-28T10:35:10.811Z,34.67
2023-02-28T10:40:02.511Z,34.31
2023-02-28T10:45:16.411Z,34.58
2023-02-28T10:50:28.854Z,35.35
2023-02-28T10:55:26.507Z,34.62
2023-02-28T11:00:22.612Z,35.10
2023-02-28T11:05:36.359Z,35.18
2023-02-28T11:10:34.811Z,35.98
2023-02-28T11:15:32.292Z,35.65
2023-02-28T11:20:28.481Z,35.04
2023-02-28T11:25:28.238Z,34.15
2023-02-28T11:30:31.283Z,34.39
2023-02-28T11:35:31.632Z,33.55
2023-02-28T11:40:32.472Z,33.97
2023-02-28T11:45:48.311Z,34.46
2023-02-28T11:50:52.342Z,34.62
2023-02-28T11:55:50.199Z,34.49
2023-02-28T12:01:04.049Z,34.59
2023-02-28T12:06:27.177Z,34.26
2023-02-28T12:11:52.101Z,33.26
2023-02-28T12:17:11.898Z,33.59
2023-02-28T12:22:18.567Z,33.68
2023-02-28T12:27:17.782Z,34.66
2023-02-28T12:32:33.324Z,32.30
2023-02-28T12:37:47.180Z,33.05
2023-02-28T12:42:56.486Z,33.67
2023-02-28T12:47:56.510Z,32.68
2023-02-28T12:52:54.288Z,34.02
2023-02-28T12:58:11.035Z,33.73
2023-02-28T13:03:31.415Z,33.38
2023-02-28T13:08:52.768Z,32.64
2023-02-28T13:13:46.324Z,32.94
2023-02-28T13:18:42.974Z,33.32
2023-02-28T13:23:53.382Z,33.39
2023-02-28T13:29:21.665Z,34.22
2023-02-28T13:34:15.940Z,34.13
2023-02-28T13:39:36.360Z,33.84
2023-02-28T13:44:28.163Z,33.49
2023-02-28T13:49:32.940Z,34.95
2023-02-28T13:54:36.827Z,33.91
2023-02-28T13:59:52.279Z,33.14
2023-02-28T14:04:56.151Z,32.79
2023-02-28T14:10:09.600Z,32.64
2023-02-28T14:15:01.509Z,33.97
2023-02-28T14:19:53.906Z,33.58
2023-02-28T14:25:18.688Z,33.46
2023-02-28T14:30:52.153Z,33.49
2023-02-28T14:36:12.286Z,33.61
2023-02-28T14:41:13.602Z,34.54
2023-02-28T14:46:07.533Z,34.22
2023-02-28T14:51:01.371Z,33.55
2023-02-28T14:55:53.814Z,34.02
2023-02-28T15:00:52.036Z,34.74
2023-02-28T15:05:53.706Z,33.67
2023-02-28T15:10:52.613Z,33.60
2023-02-28T15:16:01.888Z,33.25
2023-02-28T15:20:55.477Z,33.56
2023-02-28T15:25:47.697Z,33.24
2023-02-28T15:30:39.724Z,33.89
2023-02-28T15:35:33.573Z,33.95
2023-02-28T15:40:32.405Z,34.26
2023-02-28T15:45:41.245Z,35.14
2023-02-28T15:50:36.105Z,34.87
2023-02-28T15:55:29.480Z,35.12
2023-02-28T16:00:25.538Z,35.09
2023-02-28T16:05:32.625Z,35.04
2023-02-28T16:10:26.942Z,36.03
2023-02-28T16:15:34.103Z,36.01
2023-02-28T16:20:31.522Z,36.55
2023-02-28T16:25:44.631Z,35.97
2023-02-28T16:30:36.471Z,37.16
2023-02-28T16:35:28.285Z,37.46
2023-02-28T16:40:24.011Z,36.90
2023-02-28T16:45:25.296Z,37.71
2023-02-28T16:50:21.257Z,37.83
2023-02-28T16:55:13.140Z,38.07
2023-02-28T17:00:07.279Z,38.47
2023-02-28T17:04:58.927Z,38.71
2023-02-28T17:09:50.551Z,39.27
2023-02-28T17:14:42.837Z,39.49
2023-02-28T17:19:37.051Z,39.92
2023-02-28T17:24:31.168Z,40.65
2023-02-28T17:29:23.774Z,40.59
2023-02-28T17:34:22.483Z,41.09
2023-02-28T17:39:15.712Z,41.75
2023-02-28T17:44:07.589Z,42.46
2023-02-28T17:48:59.288Z,42.01
2023-02-28T17:53:52.233Z,42.31
2023-02-28T17:58:44.041Z,42.41
2023-02-28T18:03:36.495Z,42.90
2023-02-28T18:08:28.699Z,43.01
2023-02-28T18:13:20.479Z,44.24
2023-02-28T18:18:12.121Z,45.27
2023-02-28T18:23:04.386Z,46.39
2023-02-28T18:27:59.058Z,47.18
2023-02-28T18:32:50.718Z,47.98
2023-02-28T18:37:42.408Z,48.73
2023-02-28T18:42:34.156Z,49.66
2023-02-28T18:47:26.546Z,49.87
2023-02-28T18:52:18.422Z,50.67
2023-02-28T18:57:10.857Z,51.31
2023-02-28T19:02:02.610Z,51.53
2023-02-28T19:06:54.304Z,51.78
2023-02-28T19:11:45.930Z,51.97
2023-02-28T19:16:37.884Z,52.63
2023-02-28T19:21:29.949Z,53.46
2023-02-28T19:26:23.821Z,53.54
2023-02-28T19:31:24.513Z,53.84
2023-02-28T19:36:16.546Z,53.91
2023-02-28T19:41:10.744Z,53.93
2023-02-28T19:46:03.206Z,54.08
2023-02-28T19:51:02.717Z,53.48
2023-02-28T19:55:54.773Z,53.41
2023-02-28T20:00:46.711Z,53.14
2023-02-28T20:05:38.556Z,53.39
2023-02-28T20:10:30.832Z,54.61
2023-02-28T20:15:23.321Z,54.79
2023-02-28T20:20:15.137Z,54.53
2023-02-28T20:25:08.148Z,54.57
2023-02-28T20:29:59.837Z,54.97
2023-02-28T20:34:52.675Z,54.60
2023-02-28T20:39:46.166Z,54.84
2023-02-28T20:44:38.457Z,54.52
2023-02-28T20:49:30.635Z,54.44
2023-02-28T20:54:22.505Z,55.16
2023-02-28T20:59:14.320Z,55.29
2023-02-28T21:04:07.387Z,55.15
2023-02-28T21:08:59.474Z,55.93
2023-02-28T21:13:51.953Z,55.56
2023-02-28T21:18:44.201Z,55.48
2023-02-28T21:23:35.990Z,55.21
2023-02-28T21:28:27.768Z,55.89
2023-02-28T21:33:19.635Z,56.17
2023-02-28T21:38:11.353Z,56.13
2023-02-28T21:43:03.057Z,56.05
2023-02-28T21:47:55.861Z,56.35
2023-02-28T21:52:47.846Z,56.17
2023-02-28T21:57:39.630Z,56.03
2023-02-28T22:02:31.530Z,56.50
2023-02-28T22:07:23.756Z,57.42
2023-02-28T22:12:15.513Z,57.06
2023-02-28T22:17:08.042Z,57.74
2023-02-28T22:21:59.845Z,58.19
2023-02-28T22:26:52.388Z,57.08
2023-02-28T22:31:44.291Z,57.34
2023-02-28T22:36:36.619Z,58.02
2023-02-28T22:41:29.336Z,58.74
2023-02-28T22:46:22.794Z,59.33
2023-02-28T22:51:18.084Z,58.76
2023-02-28T22:56:11.178Z,58.28
2023-02-28T23:01:12.261Z,58.63
2023-02-28T23:06:16.046Z,58.35
2023-02-28T23:11:07.952Z,58.08
2023-02-28T23:16:00.856Z,59.07
2023-02-28T23:20:52.661Z,58.43
2023-02-28T23:25:44.368Z,59.56
2023-02-28T23:30:38.569Z,60.22
2023-02-28T23:35:32.123Z,60.21
2023-02-28T23:40:24.153Z,60.17
2023-02-28T23:45:17.812Z,60.74
2023-02-28T23:50:10.418Z,61.03
2023-02-28T23:55:02.464Z,61.30
2023-02-28T23:59:54.806Z,61.59
